sensor_id;sensor_type;location;lat;lon;timestamp;P1;durP1;ratioP1;P2;durP2;ratioP2
23155;SDS011;11746;50.876;4.246;2022-08-05T00:00:48;7.78;;;3.88;;
23155;SDS011;11746;50.876;4.246;2022-08-05T00:03:13;6.72;;;3.15;;
23155;SDS011;11746;50.876;4.246;2022-08-05T00:05:40;8.73;;;3.47;;
23155;SDS011;11746;50.876;4.246;2022-08-05T00:08:07;6.88;;;3.15;;
23155;SDS011;11746;50.876;4.246;2022-08-05T00:10:34;7.03;;;3.30;;
23155;SDS011;11746;50.876;4.246;2022-08-05T00:13:01;10.00;;;3.35;;
23155;SDS011;11746;50.876;4.246;2022-08-05T00:15:26;6.70;;;3.28;;
23155;SDS011;11746;50.876;4.246;2022-08-05T00:17:52;5.97;;;3.10;;
23155;SDS011;11746;50.876;4.246;2022-08-05T00:20:18;6.50;;;3.30;;
23155;SDS011;11746;50.876;4.246;2022-08-05T00:22:45;6.35;;;3.38;;
23155;SDS011;11746;50.876;4.246;2022-08-05T00:25:11;6.38;;;3.10;;
23155;SDS011;11746;50.876;4.246;2022-08-05T00:27:37;6.10;;;3.58;;
23155;SDS011;11746;50.876;4.246;2022-08-05T00:30:03;4.90;;;2.95;;
23155;SDS011;11746;50.876;4.246;2022-08-05T00:32:30;6.50;;;3.40;;
23155;SDS011;11746;50.876;4.246;2022-08-05T00:34:57;6.85;;;3.70;;
23155;SDS011;11746;50.876;4.246;2022-08-05T00:37:24;6.60;;;3.60;;
23155;SDS011;11746;50.876;4.246;2022-08-05T00:39:50;5.22;;;3.50;;
23155;SDS011;11746;50.876;4.246;2022-08-05T00:42:28;7.85;;;3.58;;
23155;SDS011;11746;50.876;4.246;2022-08-05T00:44:55;7.97;;;3.60;;
23155;SDS011;11746;50.876;4.246;2022-08-05T00:47:20;6.10;;;3.92;;
23155;SDS011;11746;50.876;4.246;2022-08-05T00:49:46;8.93;;;3.67;;
23155;SDS011;11746;50.876;4.246;2022-08-05T00:52:13;9.35;;;3.90;;
23155;SDS011;11746;50.876;4.246;2022-08-05T00:54:39;6.88;;;3.72;;
23155;SDS011;11746;50.876;4.246;2022-08-05T00:57:05;7.57;;;3.90;;
23155;SDS011;11746;50.876;4.246;2022-08-05T00:59:31;10.30;;;3.95;;
23155;SDS011;11746;50.876;4.246;2022-08-05T01:01:57;8.60;;;3.50;;
23155;SDS011;11746;50.876;4.246;2022-08-05T01:04:24;7.30;;;3.63;;
23155;SDS011;11746;50.876;4.246;2022-08-05T01:06:50;6.97;;;3.53;;
23155;SDS011;11746;50.876;4.246;2022-08-05T01:09:16;5.80;;;3.40;;
23155;SDS011;11746;50.876;4.246;2022-08-05T01:11:41;8.32;;;3.67;;
23155;SDS011;11746;50.876;4.246;2022-08-05T01:19:58;8.25;;;3.47;;
23155;SDS011;11746;50.876;4.246;2022-08-05T01:25:28;7.85;;;3.40;;
23155;SDS011;11746;50.876;4.246;2022-08-05T01:28:35;10.27;;;3.65;;
23155;SDS011;11746;50.876;4.246;2022-08-05T01:34:22;7.45;;;3.40;;
23155;SDS011;11746;50.876;4.246;2022-08-05T01:37:54;5.22;;;2.90;;
23155;SDS011;11746;50.876;4.246;2022-08-05T01:39:54;8.27;;;3.58;;
23155;SDS011;11746;50.876;4.246;2022-08-05T01:42:22;6.03;;;3.50;;
23155;SDS011;11746;50.876;4.246;2022-08-05T01:44:50;8.75;;;3.38;;
23155;SDS011;11746;50.876;4.246;2022-08-05T01:47:21;9.95;;;3.60;;
23155;SDS011;11746;50.876;4.246;2022-08-05T01:49:51;8.00;;;3.33;;
23155;SDS011;11746;50.876;4.246;2022-08-05T01:52:18;8.93;;;3.90;;
23155;SDS011;11746;50.876;4.246;2022-08-05T01:54:50;8.38;;;3.65;;
23155;SDS011;11746;50.876;4.246;2022-08-05T01:57:24;8.50;;;3.30;;
23155;SDS011;11746;50.876;4.246;2022-08-05T01:59:58;7.30;;;3.60;;
23155;SDS011;11746;50.876;4.246;2022-08-05T02:02:27;6.45;;;3.47;;
23155;SDS011;11746;50.876;4.246;2022-08-05T02:04:57;7.47;;;3.28;;
23155;SDS011;11746;50.876;4.246;2022-08-05T02:07:26;6.15;;;3.80;;
23155;SDS011;11746;50.876;4.246;2022-08-05T02:09:52;9.13;;;3.70;;
23155;SDS011;11746;50.876;4.246;2022-08-05T02:12:41;8.15;;;3.28;;
23155;SDS011;11746;50.876;4.246;2022-08-05T02:15:16;5.25;;;3.20;;
23155;SDS011;11746;50.876;4.246;2022-08-05T02:18:37;7.32;;;3.13;;
23155;SDS011;11746;50.876;4.246;2022-08-05T02:21:32;7.32;;;2.92;;
23155;SDS011;11746;50.876;4.246;2022-08-05T02:23:54;5.47;;;3.00;;
23155;SDS011;11746;50.876;4.246;2022-08-05T02:26:25;9.48;;;3.58;;
23155;SDS011;11746;50.876;4.246;2022-08-05T02:28:56;6.13;;;3.00;;
23155;SDS011;11746;50.876;4.246;2022-08-05T02:31:25;5.13;;;3.42;;
23155;SDS011;11746;50.876;4.246;2022-08-05T02:33:54;7.50;;;3.17;;
23155;SDS011;11746;50.876;4.246;2022-08-05T02:36:22;6.90;;;3.60;;
23155;SDS011;11746;50.876;4.246;2022-08-05T02:38:51;7.68;;;4.22;;
23155;SDS011;11746;50.876;4.246;2022-08-05T02:41:21;9.10;;;3.60;;
23155;SDS011;11746;50.876;4.246;2022-08-05T02:43:49;7.70;;;3.13;;
23155;SDS011;11746;50.876;4.246;2022-08-05T02:46:17;6.07;;;3.22;;
23155;SDS011;11746;50.876;4.246;2022-08-05T02:48:46;7.13;;;3.88;;
23155;SDS011;11746;50.876;4.246;2022-08-05T02:51:13;10.98;;;3.53;;
23155;SDS011;11746;50.876;4.246;2022-08-05T02:53:40;8.68;;;3.78;;
23155;SDS011;11746;50.876;4.246;2022-08-05T02:56:08;6.43;;;4.10;;
23155;SDS011;11746;50.876;4.246;2022-08-05T02:58:39;7.28;;;3.70;;
23155;SDS011;11746;50.876;4.246;2022-08-05T03:01:05;8.30;;;3.95;;
23155;SDS011;11746;50.876;4.246;2022-08-05T03:03:38;9.02;;;4.18;;
23155;SDS011;11746;50.876;4.246;2022-08-05T03:06:05;7.72;;;3.20;;
23155;SDS011;11746;50.876;4.246;2022-08-05T03:08:34;5.95;;;3.63;;
23155;SDS011;11746;50.876;4.246;2022-08-05T03:11:02;9.15;;;4.03;;
23155;SDS011;11746;50.876;4.246;2022-08-05T03:13:28;7.05;;;3.47;;
23155;SDS011;11746;50.876;4.246;2022-08-05T03:15:54;6.53;;;3.15;;
23155;SDS011;11746;50.876;4.246;2022-08-05T03:18:20;7.68;;;3.50;;
23155;SDS011;11746;50.876;4.246;2022-08-05T03:20:46;11.07;;;3.55;;
23155;SDS011;11746;50.876;4.246;2022-08-05T03:23:12;7.90;;;3.40;;
23155;SDS011;11746;50.876;4.246;2022-08-05T03:25:40;8.27;;;3.90;;
23155;SDS011;11746;50.876;4.246;2022-08-05T03:28:07;11.20;;;3.83;;
23155;SDS011;11746;50.876;4.246;2022-08-05T03:30:34;8.20;;;3.70;;
23155;SDS011;11746;50.876;4.246;2022-08-05T03:33:02;9.02;;;3.78;;
23155;SDS011;11746;50.876;4.246;2022-08-05T03:35:31;8.90;;;3.90;;
23155;SDS011;11746;50.876;4.246;2022-08-05T03:37:57;10.85;;;3.83;;
23155;SDS011;11746;50.876;4.246;2022-08-05T03:40:25;9.48;;;4.28;;
23155;SDS011;11746;50.876;4.246;2022-08-05T03:42:52;6.13;;;3.70;;
23155;SDS011;11746;50.876;4.246;2022-08-05T03:45:19;14.05;;;4.45;;
23155;SDS011;11746;50.876;4.246;2022-08-05T03:47:46;9.65;;;3.63;;
23155;SDS011;11746;50.876;4.246;2022-08-05T03:50:12;13.00;;;5.10;;
23155;SDS011;11746;50.876;4.246;2022-08-05T03:52:50;7.53;;;3.83;;
23155;SDS011;11746;50.876;4.246;2022-08-05T03:55:30;8.68;;;3.85;;
23155;SDS011;11746;50.876;4.246;2022-08-05T03:57:59;9.43;;;3.95;;
23155;SDS011;11746;50.876;4.246;2022-08-05T04:00:27;7.88;;;4.47;;
23155;SDS011;11746;50.876;4.246;2022-08-05T04:03:00;8.98;;;4.53;;
23155;SDS011;11746;50.876;4.246;2022-08-05T04:05:29;8.80;;;4.45;;
23155;SDS011;11746;50.876;4.246;2022-08-05T04:07:58;12.32;;;4.70;;
23155;SDS011;11746;50.876;4.246;2022-08-05T04:10:26;9.57;;;4.18;;
23155;SDS011;11746;50.876;4.246;2022-08-05T04:12:54;11.50;;;4.53;;
23155;SDS011;11746;50.876;4.246;2022-08-05T04:15:21;7.82;;;4.38;;
23155;SDS011;11746;50.876;4.246;2022-08-05T04:17:48;9.75;;;4.30;;
23155;SDS011;11746;50.876;4.246;2022-08-05T04:20:18;12.52;;;5.10;;
23155;SDS011;11746;50.876;4.246;2022-08-05T04:22:48;12.82;;;4.70;;
23155;SDS011;11746;50.876;4.246;2022-08-05T04:25:15;8.32;;;4.50;;
23155;SDS011;11746;50.876;4.246;2022-08-05T04:27:41;5.93;;;4.28;;
23155;SDS011;11746;50.876;4.246;2022-08-05T04:30:08;9.65;;;4.45;;
23155;SDS011;11746;50.876;4.246;2022-08-05T04:32:34;8.60;;;4.60;;
23155;SDS011;11746;50.876;4.246;2022-08-05T04:35:01;10.48;;;4.50;;
23155;SDS011;11746;50.876;4.246;2022-08-05T04:37:28;12.60;;;5.25;;
23155;SDS011;11746;50.876;4.246;2022-08-05T04:39:55;9.73;;;4.97;;
23155;SDS011;11746;50.876;4.246;2022-08-05T04:42:21;11.30;;;5.10;;
23155;SDS011;11746;50.876;4.246;2022-08-05T04:44:47;10.68;;;4.55;;
23155;SDS011;11746;50.876;4.246;2022-08-05T04:47:13;11.40;;;5.35;;
23155;SDS011;11746;50.876;4.246;2022-08-05T04:49:39;13.07;;;4.95;;
23155;SDS011;11746;50.876;4.246;2022-08-05T04:52:05;11.07;;;5.78;;
23155;SDS011;11746;50.876;4.246;2022-08-05T04:54:31;12.18;;;5.53;;
23155;SDS011;11746;50.876;4.246;2022-08-05T04:56:57;12.68;;;5.75;;
23155;SDS011;11746;50.876;4.246;2022-08-05T04:59:23;12.65;;;5.55;;
23155;SDS011;11746;50.876;4.246;2022-08-05T05:01:49;8.65;;;5.40;;
23155;SDS011;11746;50.876;4.246;2022-08-05T05:04:16;12.65;;;5.47;;
23155;SDS011;11746;50.876;4.246;2022-08-05T05:06:42;12.75;;;5.75;;
23155;SDS011;11746;50.876;4.246;2022-08-05T05:09:09;14.13;;;5.60;;
23155;SDS011;11746;50.876;4.246;2022-08-05T05:11:38;10.07;;;5.82;;
23155;SDS011;11746;50.876;4.246;2022-08-05T05:14:04;10.85;;;5.47;;
23155;SDS011;11746;50.876;4.246;2022-08-05T05:16:30;13.27;;;6.28;;
23155;SDS011;11746;50.876;4.246;2022-08-05T05:18:56;11.45;;;5.93;;
23155;SDS011;11746;50.876;4.246;2022-08-05T05:21:22;11.50;;;5.50;;
23155;SDS011;11746;50.876;4.246;2022-08-05T05:23:49;15.30;;;5.60;;
23155;SDS011;11746;50.876;4.246;2022-08-05T05:26:16;12.30;;;5.75;;
23155;SDS011;11746;50.876;4.246;2022-08-05T05:28:43;11.48;;;5.10;;
23155;SDS011;11746;50.876;4.246;2022-08-05T05:31:09;12.35;;;5.72;;
23155;SDS011;11746;50.876;4.246;2022-08-05T05:33:35;11.95;;;5.60;;
23155;SDS011;11746;50.876;4.246;2022-08-05T05:36:01;12.43;;;5.55;;
23155;SDS011;11746;50.876;4.246;2022-08-05T05:38:27;12.20;;;5.75;;
23155;SDS011;11746;50.876;4.246;2022-08-05T05:40:54;11.60;;;5.47;;
23155;SDS011;11746;50.876;4.246;2022-08-05T05:43:20;11.30;;;5.85;;
23155;SDS011;11746;50.876;4.246;2022-08-05T05:45:47;11.15;;;6.13;;
23155;SDS011;11746;50.876;4.246;2022-08-05T05:48:13;12.13;;;6.82;;
23155;SDS011;11746;50.876;4.246;2022-08-05T05:50:39;10.63;;;6.32;;
23155;SDS011;11746;50.876;4.246;2022-08-05T05:53:06;12.25;;;5.85;;
23155;SDS011;11746;50.876;4.246;2022-08-05T05:55:35;11.65;;;6.15;;
23155;SDS011;11746;50.876;4.246;2022-08-05T05:58:01;10.90;;;6.05;;
23155;SDS011;11746;50.876;4.246;2022-08-05T06:00:28;12.07;;;6.57;;
23155;SDS011;11746;50.876;4.246;2022-08-05T06:02:54;12.40;;;6.60;;
23155;SDS011;11746;50.876;4.246;2022-08-05T06:05:20;11.32;;;6.25;;
23155;SDS011;11746;50.876;4.246;2022-08-05T06:07:46;10.02;;;6.63;;
23155;SDS011;11746;50.876;4.246;2022-08-05T06:10:16;11.90;;;6.70;;
23155;SDS011;11746;50.876;4.246;2022-08-05T06:12:42;11.68;;;6.10;;
23155;SDS011;11746;50.876;4.246;2022-08-05T06:15:09;10.27;;;5.95;;
23155;SDS011;11746;50.876;4.246;2022-08-05T06:17:36;10.23;;;6.55;;
23155;SDS011;11746;50.876;4.246;2022-08-05T06:20:03;11.65;;;6.88;;
23155;SDS011;11746;50.876;4.246;2022-08-05T06:22:31;10.43;;;6.32;;
23155;SDS011;11746;50.876;4.246;2022-08-05T06:24:58;10.52;;;6.57;;
23155;SDS011;11746;50.876;4.246;2022-08-05T06:27:26;12.13;;;7.25;;
23155;SDS011;11746;50.876;4.246;2022-08-05T06:29:53;13.55;;;7.28;;
23155;SDS011;11746;50.876;4.246;2022-08-05T06:32:19;11.75;;;7.05;;
23155;SDS011;11746;50.876;4.246;2022-08-05T06:34:47;13.27;;;7.43;;
23155;SDS011;11746;50.876;4.246;2022-08-05T06:37:13;14.43;;;7.65;;
23155;SDS011;11746;50.876;4.246;2022-08-05T06:39:40;14.45;;;7.32;;
23155;SDS011;11746;50.876;4.246;2022-08-05T06:42:07;13.68;;;7.72;;
23155;SDS011;11746;50.876;4.246;2022-08-05T06:44:33;14.20;;;8.13;;
23155;SDS011;11746;50.876;4.246;2022-08-05T06:46:59;14.48;;;7.88;;
23155;SDS011;11746;50.876;4.246;2022-08-05T06:49:25;16.35;;;7.82;;
23155;SDS011;11746;50.876;4.246;2022-08-05T06:51:51;15.27;;;7.15;;
23155;SDS011;11746;50.876;4.246;2022-08-05T06:54:17;11.35;;;7.45;;
23155;SDS011;11746;50.876;4.246;2022-08-05T06:56:43;15.18;;;7.47;;
23155;SDS011;11746;50.876;4.246;2022-08-05T06:59:10;14.57;;;7.32;;
23155;SDS011;11746;50.876;4.246;2022-08-05T07:01:38;19.20;;;8.05;;
23155;SDS011;11746;50.876;4.246;2022-08-05T07:04:07;14.65;;;7.78;;
23155;SDS011;11746;50.876;4.246;2022-08-05T07:06:33;13.27;;;6.82;;
23155;SDS011;11746;50.876;4.246;2022-08-05T07:08:59;12.20;;;6.00;;
23155;SDS011;11746;50.876;4.246;2022-08-05T07:11:26;12.98;;;6.72;;
23155;SDS011;11746;50.876;4.246;2022-08-05T07:13:52;7.38;;;5.25;;
23155;SDS011;11746;50.876;4.246;2022-08-05T07:16:37;9.60;;;6.40;;
23155;SDS011;11746;50.876;4.246;2022-08-05T07:19:16;8.48;;;5.75;;
23155;SDS011;11746;50.876;4.246;2022-08-05T07:21:44;10.45;;;6.18;;
23155;SDS011;11746;50.876;4.246;2022-08-05T07:24:12;9.73;;;6.13;;
23155;SDS011;11746;50.876;4.246;2022-08-05T07:26:39;11.43;;;5.30;;
23155;SDS011;11746;50.876;4.246;2022-08-05T07:29:06;9.75;;;5.18;;
23155;SDS011;11746;50.876;4.246;2022-08-05T07:31:34;9.90;;;4.60;;
23155;SDS011;11746;50.876;4.246;2022-08-05T07:34:00;9.40;;;4.50;;
23155;SDS011;11746;50.876;4.246;2022-08-05T07:36:27;9.43;;;5.10;;
23155;SDS011;11746;50.876;4.246;2022-08-05T07:38:53;10.27;;;4.65;;
23155;SDS011;11746;50.876;4.246;2022-08-05T07:41:20;9.20;;;4.60;;
23155;SDS011;11746;50.876;4.246;2022-08-05T07:43:47;10.57;;;4.63;;
23155;SDS011;11746;50.876;4.246;2022-08-05T07:46:14;15.52;;;4.40;;
23155;SDS011;11746;50.876;4.246;2022-08-05T07:48:40;10.63;;;3.60;;
23155;SDS011;11746;50.876;4.246;2022-08-05T07:51:07;7.63;;;3.90;;
23155;SDS011;11746;50.876;4.246;2022-08-05T07:53:33;5.97;;;3.40;;
23155;SDS011;11746;50.876;4.246;2022-08-05T07:56:01;7.80;;;3.65;;
23155;SDS011;11746;50.876;4.246;2022-08-05T07:58:29;8.93;;;3.60;;
23155;SDS011;11746;50.876;4.246;2022-08-05T08:00:55;9.90;;;4.00;;
23155;SDS011;11746;50.876;4.246;2022-08-05T08:03:20;8.73;;;3.80;;
23155;SDS011;11746;50.876;4.246;2022-08-05T08:05:47;9.05;;;3.75;;
23155;SDS011;11746;50.876;4.246;2022-08-05T08:08:16;6.90;;;3.00;;
23155;SDS011;11746;50.876;4.246;2022-08-05T08:10:42;6.68;;;2.90;;
23155;SDS011;11746;50.876;4.246;2022-08-05T08:13:08;9.18;;;2.90;;
23155;SDS011;11746;50.876;4.246;2022-08-05T08:15:35;8.50;;;3.08;;
23155;SDS011;11746;50.876;4.246;2022-08-05T08:18:02;5.13;;;2.40;;
23155;SDS011;11746;50.876;4.246;2022-08-05T08:20:28;5.13;;;2.22;;
23155;SDS011;11746;50.876;4.246;2022-08-05T08:22:55;4.88;;;2.45;;
23155;SDS011;11746;50.876;4.246;2022-08-05T08:25:26;4.68;;;2.30;;
23155;SDS011;11746;50.876;4.246;2022-08-05T08:27:53;7.45;;;2.45;;
23155;SDS011;11746;50.876;4.246;2022-08-05T08:30:20;8.85;;;2.22;;
23155;SDS011;11746;50.876;4.246;2022-08-05T08:32:46;7.95;;;2.05;;
23155;SDS011;11746;50.876;4.246;2022-08-05T08:35:12;6.03;;;1.90;;
23155;SDS011;11746;50.876;4.246;2022-08-05T08:37:39;5.22;;;2.30;;
23155;SDS011;11746;50.876;4.246;2022-08-05T08:40:06;7.55;;;2.30;;
23155;SDS011;11746;50.876;4.246;2022-08-05T08:42:32;9.98;;;3.17;;
23155;SDS011;11746;50.876;4.246;2022-08-05T08:44:59;5.90;;;3.15;;
23155;SDS011;11746;50.876;4.246;2022-08-05T08:47:27;10.65;;;2.83;;
23155;SDS011;11746;50.876;4.246;2022-08-05T08:49:56;6.63;;;3.45;;
23155;SDS011;11746;50.876;4.246;2022-08-05T08:52:23;6.35;;;3.40;;
23155;SDS011;11746;50.876;4.246;2022-08-05T08:54:54;6.65;;;3.20;;
23155;SDS011;11746;50.876;4.246;2022-08-05T08:57:21;7.38;;;3.47;;
23155;SDS011;11746;50.876;4.246;2022-08-05T08:59:50;8.40;;;3.97;;
23155;SDS011;11746;50.876;4.246;2022-08-05T09:02:19;7.13;;;3.92;;
23155;SDS011;11746;50.876;4.246;2022-08-05T09:04:46;8.35;;;3.58;;
23155;SDS011;11746;50.876;4.246;2022-08-05T09:07:12;6.13;;;3.22;;
23155;SDS011;11746;50.876;4.246;2022-08-05T09:09:38;7.35;;;2.55;;
23155;SDS011;11746;50.876;4.246;2022-08-05T09:12:06;5.70;;;2.35;;
23155;SDS011;11746;50.876;4.246;2022-08-05T09:14:35;4.57;;;2.17;;
23155;SDS011;11746;50.876;4.246;2022-08-05T09:17:04;6.70;;;3.30;;
23155;SDS011;11746;50.876;4.246;2022-08-05T09:19:35;6.75;;;2.25;;
23155;SDS011;11746;50.876;4.246;2022-08-05T09:22:01;6.07;;;1.80;;
23155;SDS011;11746;50.876;4.246;2022-08-05T09:24:27;8.27;;;2.00;;
23155;SDS011;11746;50.876;4.246;2022-08-05T09:26:55;4.93;;;1.75;;
23155;SDS011;11746;50.876;4.246;2022-08-05T09:29:38;4.40;;;1.70;;
23155;SDS011;11746;50.876;4.246;2022-08-05T09:32:12;3.78;;;1.40;;
23155;SDS011;11746;50.876;4.246;2022-08-05T09:34:48;3.78;;;0.90;;
23155;SDS011;11746;50.876;4.246;2022-08-05T09:37:19;2.90;;;1.40;;
23155;SDS011;11746;50.876;4.246;2022-08-05T09:39:50;4.13;;;1.10;;
23155;SDS011;11746;50.876;4.246;2022-08-05T09:42:19;2.65;;;1.00;;
23155;SDS011;11746;50.876;4.246;2022-08-05T09:47:15;3.30;;;0.90;;
23155;SDS011;11746;50.876;4.246;2022-08-05T09:49:49;3.13;;;1.00;;
23155;SDS011;11746;50.876;4.246;2022-08-05T09:52:26;6.13;;;0.90;;
23155;SDS011;11746;50.876;4.246;2022-08-05T09:55:01;4.30;;;1.05;;
23155;SDS011;11746;50.876;4.246;2022-08-05T09:57:36;3.33;;;1.20;;
23155;SDS011;11746;50.876;4.246;2022-08-05T10:00:06;4.10;;;1.15;;
23155;SDS011;11746;50.876;4.246;2022-08-05T10:02:40;2.30;;;0.93;;
23155;SDS011;11746;50.876;4.246;2022-08-05T10:05:28;4.53;;;0.98;;
23155;SDS011;11746;50.876;4.246;2022-08-05T10:07:58;5.68;;;0.80;;
23155;SDS011;11746;50.876;4.246;2022-08-05T10:10:26;2.72;;;0.90;;
23155;SDS011;11746;50.876;4.246;2022-08-05T10:12:55;3.28;;;1.10;;
23155;SDS011;11746;50.876;4.246;2022-08-05T10:15:24;6.28;;;1.23;;
23155;SDS011;11746;50.876;4.246;2022-08-05T10:18:05;2.60;;;1.00;;
23155;SDS011;11746;50.876;4.246;2022-08-05T10:20:40;2.55;;;1.08;;
23155;SDS011;11746;50.876;4.246;2022-08-05T10:23:14;4.25;;;1.05;;
23155;SDS011;11746;50.876;4.246;2022-08-05T10:25:44;3.75;;;0.90;;
23155;SDS011;11746;50.876;4.246;2022-08-05T10:28:10;3.28;;;1.60;;
23155;SDS011;11746;50.876;4.246;2022-08-05T10:30:37;4.22;;;1.20;;
23155;SDS011;11746;50.876;4.246;2022-08-05T10:33:04;1.55;;;0.98;;
23155;SDS011;11746;50.876;4.246;2022-08-05T10:35:31;3.38;;;1.10;;
23155;SDS011;11746;50.876;4.246;2022-08-05T10:37:57;4.53;;;1.48;;
23155;SDS011;11746;50.876;4.246;2022-08-05T10:45:58;3.80;;;1.30;;
23155;SDS011;11746;50.876;4.246;2022-08-05T10:48:30;5.97;;;0.90;;
23155;SDS011;11746;50.876;4.246;2022-08-05T10:53:36;4.10;;;0.90;;
23155;SDS011;11746;50.876;4.246;2022-08-05T10:59:15;5.18;;;1.10;;
23155;SDS011;11746;50.876;4.246;2022-08-05T11:01:38;3.60;;;1.05;;
23155;SDS011;11746;50.876;4.246;2022-08-05T11:04:10;4.28;;;0.90;;
23155;SDS011;11746;50.876;4.246;2022-08-05T11:09:26;7.30;;;1.48;;
23155;SDS011;11746;50.876;4.246;2022-08-05T11:12:00;5.72;;;0.77;;
23155;SDS011;11746;50.876;4.246;2022-08-05T11:14:31;4.05;;;0.77;;
23155;SDS011;11746;50.876;4.246;2022-08-05T11:19:54;3.78;;;1.17;;
23155;SDS011;11746;50.876;4.246;2022-08-05T11:22:41;3.47;;;0.60;;
23155;SDS011;11746;50.876;4.246;2022-08-05T11:25:26;3.45;;;0.95;;
23155;SDS011;11746;50.876;4.246;2022-08-05T11:33:30;3.10;;;0.93;;
23155;SDS011;11746;50.876;4.246;2022-08-05T11:36:05;3.00;;;1.00;;
23155;SDS011;11746;50.876;4.246;2022-08-05T11:46:42;3.17;;;0.63;;
23155;SDS011;11746;50.876;4.246;2022-08-05T11:49:12;3.70;;;1.20;;
23155;SDS011;11746;50.876;4.246;2022-08-05T11:51:42;4.05;;;0.70;;
23155;SDS011;11746;50.876;4.246;2022-08-05T11:54:13;3.63;;;0.80;;
23155;SDS011;11746;50.876;4.246;2022-08-05T11:56:49;2.58;;;1.00;;
23155;SDS011;11746;50.876;4.246;2022-08-05T11:59:23;5.05;;;0.80;;
23155;SDS011;11746;50.876;4.246;2022-08-05T12:01:53;7.43;;;0.90;;
23155;SDS011;11746;50.876;4.246;2022-08-05T12:04:21;3.95;;;0.90;;
23155;SDS011;11746;50.876;4.246;2022-08-05T12:06:47;4.13;;;0.90;;
23155;SDS011;11746;50.876;4.246;2022-08-05T12:09:15;3.22;;;0.98;;
23155;SDS011;11746;50.876;4.246;2022-08-05T12:11:44;2.83;;;0.98;;
23155;SDS011;11746;50.876;4.246;2022-08-05T12:14:11;4.13;;;0.80;;
23155;SDS011;11746;50.876;4.246;2022-08-05T12:16:45;3.47;;;0.75;;
23155;SDS011;11746;50.876;4.246;2022-08-05T12:19:12;5.53;;;0.85;;
23155;SDS011;11746;50.876;4.246;2022-08-05T12:21:47;5.18;;;0.50;;
23155;SDS011;11746;50.876;4.246;2022-08-05T12:24:19;2.80;;;0.63;;
23155;SDS011;11746;50.876;4.246;2022-08-05T12:26:46;2.78;;;0.60;;
23155;SDS011;11746;50.876;4.246;2022-08-05T12:29:19;2.45;;;0.45;;
23155;SDS011;11746;50.876;4.246;2022-08-05T12:31:56;2.90;;;0.68;;
23155;SDS011;11746;50.876;4.246;2022-08-05T12:34:25;3.17;;;0.63;;
23155;SDS011;11746;50.876;4.246;2022-08-05T12:36:55;3.20;;;0.85;;
23155;SDS011;11746;50.876;4.246;2022-08-05T12:39:26;2.75;;;0.80;;
23155;SDS011;11746;50.876;4.246;2022-08-05T12:41:57;2.28;;;0.50;;
23155;SDS011;11746;50.876;4.246;2022-08-05T12:44:25;4.80;;;1.02;;
23155;SDS011;11746;50.876;4.246;2022-08-05T12:46:53;2.08;;;0.60;;
23155;SDS011;11746;50.876;4.246;2022-08-05T12:49:20;2.05;;;0.50;;
23155;SDS011;11746;50.876;4.246;2022-08-05T12:51:51;4.13;;;0.50;;
23155;SDS011;11746;50.876;4.246;2022-08-05T12:54:21;5.35;;;0.60;;
23155;SDS011;11746;50.876;4.246;2022-08-05T12:56:52;1.35;;;0.47;;
23155;SDS011;11746;50.876;4.246;2022-08-05T12:59:26;1.73;;;0.40;;
23155;SDS011;11746;50.876;4.246;2022-08-05T13:02:04;3.05;;;0.45;;
23155;SDS011;11746;50.876;4.246;2022-08-05T13:07:00;1.83;;;0.40;;
23155;SDS011;11746;50.876;4.246;2022-08-05T13:09:28;3.90;;;0.82;;
23155;SDS011;11746;50.876;4.246;2022-08-05T13:12:00;4.95;;;0.50;;
23155;SDS011;11746;50.876;4.246;2022-08-05T13:14:28;1.73;;;0.38;;
23155;SDS011;11746;50.876;4.246;2022-08-05T13:16:59;2.80;;;0.50;;
23155;SDS011;11746;50.876;4.246;2022-08-05T13:19:26;2.40;;;0.57;;
23155;SDS011;11746;50.876;4.246;2022-08-05T13:21:54;1.35;;;0.47;;
23155;SDS011;11746;50.876;4.246;2022-08-05T13:24:21;3.03;;;0.80;;
23155;SDS011;11746;50.876;4.246;2022-08-05T13:26:48;0.80;;;0.30;;
23155;SDS011;11746;50.876;4.246;2022-08-05T13:29:15;1.30;;;0.40;;
23155;SDS011;11746;50.876;4.246;2022-08-05T13:31:42;2.00;;;0.50;;
23155;SDS011;11746;50.876;4.246;2022-08-05T13:34:08;1.52;;;0.60;;
23155;SDS011;11746;50.876;4.246;2022-08-05T13:36:35;5.10;;;0.70;;
23155;SDS011;11746;50.876;4.246;2022-08-05T13:39:03;1.05;;;0.50;;
23155;SDS011;11746;50.876;4.246;2022-08-05T13:41:29;3.08;;;0.40;;
23155;SDS011;11746;50.876;4.246;2022-08-05T13:43:56;11.55;;;1.35;;
23155;SDS011;11746;50.876;4.246;2022-08-05T13:46:22;2.60;;;0.70;;
23155;SDS011;11746;50.876;4.246;2022-08-05T13:48:49;1.95;;;0.40;;
23155;SDS011;11746;50.876;4.246;2022-08-05T13:51:24;2.78;;;0.50;;
23155;SDS011;11746;50.876;4.246;2022-08-05T13:53:51;2.50;;;0.50;;
23155;SDS011;11746;50.876;4.246;2022-08-05T13:56:18;2.97;;;0.50;;
23155;SDS011;11746;50.876;4.246;2022-08-05T13:58:44;3.33;;;0.63;;
23155;SDS011;11746;50.876;4.246;2022-08-05T14:01:11;1.83;;;0.43;;
23155;SDS011;11746;50.876;4.246;2022-08-05T14:03:37;1.60;;;0.70;;
23155;SDS011;11746;50.876;4.246;2022-08-05T14:06:03;2.30;;;0.80;;
23155;SDS011;11746;50.876;4.246;2022-08-05T14:08:30;8.60;;;0.88;;
23155;SDS011;11746;50.876;4.246;2022-08-05T14:10:56;1.65;;;0.50;;
23155;SDS011;11746;50.876;4.246;2022-08-05T14:13:22;4.88;;;0.73;;
23155;SDS011;11746;50.876;4.246;2022-08-05T14:15:49;2.47;;;0.40;;
23155;SDS011;11746;50.876;4.246;2022-08-05T14:18:15;3.63;;;0.50;;
23155;SDS011;11746;50.876;4.246;2022-08-05T14:20:41;1.60;;;0.52;;
23155;SDS011;11746;50.876;4.246;2022-08-05T14:23:07;1.83;;;0.70;;
23155;SDS011;11746;50.876;4.246;2022-08-05T14:25:33;5.43;;;0.90;;
23155;SDS011;11746;50.876;4.246;2022-08-05T14:27:59;2.03;;;0.63;;
23155;SDS011;11746;50.876;4.246;2022-08-05T14:30:26;2.80;;;0.65;;
23155;SDS011;11746;50.876;4.246;2022-08-05T14:32:52;3.42;;;0.60;;
23155;SDS011;11746;50.876;4.246;2022-08-05T14:35:18;2.58;;;0.50;;
23155;SDS011;11746;50.876;4.246;2022-08-05T14:37:45;1.25;;;0.57;;
23155;SDS011;11746;50.876;4.246;2022-08-05T14:40:11;2.33;;;0.50;;
23155;SDS011;11746;50.876;4.246;2022-08-05T14:42:37;2.35;;;0.68;;
23155;SDS011;11746;50.876;4.246;2022-08-05T14:45:05;0.80;;;0.38;;
23155;SDS011;11746;50.876;4.246;2022-08-05T14:47:32;3.78;;;0.80;;
23155;SDS011;11746;50.876;4.246;2022-08-05T14:49:58;3.38;;;0.60;;
23155;SDS011;11746;50.876;4.246;2022-08-05T14:52:25;3.75;;;0.50;;
23155;SDS011;11746;50.876;4.246;2022-08-05T14:54:51;1.80;;;0.40;;
23155;SDS011;11746;50.876;4.246;2022-08-05T14:57:17;2.50;;;0.70;;
23155;SDS011;11746;50.876;4.246;2022-08-05T14:59:43;3.92;;;0.85;;
23155;SDS011;11746;50.876;4.246;2022-08-05T15:02:11;3.60;;;0.80;;
23155;SDS011;11746;50.876;4.246;2022-08-05T15:04:37;1.90;;;0.45;;
23155;SDS011;11746;50.876;4.246;2022-08-05T15:07:02;3.40;;;0.50;;
23155;SDS011;11746;50.876;4.246;2022-08-05T15:09:29;3.92;;;0.40;;
23155;SDS011;11746;50.876;4.246;2022-08-05T15:11:55;1.80;;;0.55;;
23155;SDS011;11746;50.876;4.246;2022-08-05T15:14:21;2.55;;;0.50;;
23155;SDS011;11746;50.876;4.246;2022-08-05T15:16:49;2.05;;;0.60;;
23155;SDS011;11746;50.876;4.246;2022-08-05T15:19:15;4.13;;;0.70;;
23155;SDS011;11746;50.876;4.246;2022-08-05T15:21:42;4.38;;;0.70;;
23155;SDS011;11746;50.876;4.246;2022-08-05T15:24:08;2.08;;;0.60;;
23155;SDS011;11746;50.876;4.246;2022-08-05T15:26:34;4.30;;;0.90;;
23155;SDS011;11746;50.876;4.246;2022-08-05T15:29:00;5.90;;;0.75;;
23155;SDS011;11746;50.876;4.246;2022-08-05T15:31:26;3.28;;;0.80;;
23155;SDS011;11746;50.876;4.246;2022-08-05T15:33:53;1.95;;;0.60;;
23155;SDS011;11746;50.876;4.246;2022-08-05T15:36:19;7.50;;;1.08;;
23155;SDS011;11746;50.876;4.246;2022-08-05T15:38:45;3.53;;;0.60;;
23155;SDS011;11746;50.876;4.246;2022-08-05T15:41:12;3.33;;;0.93;;